createdAt,value
2023-07-28T00:02:02.523Z,57.30
2023-07-28T00:04:29.422Z,57.70
2023-07-28T00:06:56.194Z,57.80
2023-07-28T00:09:24.254Z,58.40
2023-07-28T00:11:51.095Z,58.60
2023-07-28T00:14:17.961Z,58.60
2023-07-28T00:16:44.835Z,58.80
2023-07-28T00:19:11.760Z,58.60
2023-07-28T00:21:39.041Z,58.50
2023-07-28T00:24:06.194Z,58.70
2023-07-28T00:26:33.288Z,58.90
2023-07-28T00:29:00.495Z,59.00
2023-07-28T00:31:27.332Z,58.60
2023-07-28T00:33:54.203Z,58.90
2023-07-28T00:36:21.139Z,59.30
2023-07-28T00:38:48.202Z,59.70
2023-07-28T00:41:15.035Z,59.80
2023-07-28T00:43:41.852Z,59.80
2023-07-28T00:46:10.155Z,60.10
2023-07-28T00:48:37.627Z,59.90
2023-07-28T00:51:04.980Z,60.30
2023-07-28T00:53:32.274Z,60.10
2023-07-28T00:55:59.148Z,60.40
2023-07-28T00:58:26.117Z,60.20
2023-07-28T01:00:53.005Z,60.30
2023-07-28T01:03:21.165Z,61.40
2023-07-28T01:06:06.433Z,60.40
2023-07-28T01:09:17.598Z,61.70
2023-07-28T01:11:56.625Z,61.80
2023-07-28T01:14:23.412Z,61.80
2023-07-28T01:16:50.717Z,60.70
2023-07-28T01:19:22.395Z,60.80
2023-07-28T01:22:13.235Z,60.70
2023-07-28T01:24:57.140Z,61.90
2023-07-28T01:27:24.503Z,62.40
2023-07-28T01:29:51.383Z,62.30
2023-07-28T01:32:18.366Z,62.50
2023-07-28T01:34:45.176Z,62.40
2023-07-28T01:37:12.088Z,62.50
2023-07-28T01:39:39.122Z,62.70
2023-07-28T01:42:06.100Z,62.70
2023-07-28T01:44:32.923Z,62.70
2023-07-28T01:46:59.806Z,62.80
2023-07-28T01:49:26.608Z,62.90
2023-07-28T01:51:53.466Z,63.20
2023-07-28T01:54:20.252Z,63.90
2023-07-28T01:56:47.130Z,63.80
2023-07-28T01:59:14.475Z,64.20
2023-07-28T02:01:41.545Z,64.30
2023-07-28T02:04:08.677Z,64.20
2023-07-28T02:06:35.803Z,64.10
2023-07-28T02:09:02.782Z,64.20
2023-07-28T02:11:29.610Z,64.50
2023-07-28T02:13:56.448Z,64.60
2023-07-28T02:16:23.304Z,64.50
2023-07-28T02:18:50.099Z,64.70
2023-07-28T02:21:16.941Z,64.60
2023-07-28T02:23:43.688Z,64.80
2023-07-28T02:26:10.477Z,64.90
2023-07-28T02:28:37.367Z,65.00
2023-07-28T02:31:04.296Z,65.40
2023-07-28T02:33:32.668Z,65.60
2023-07-28T02:35:59.466Z,65.90
2023-07-28T02:38:26.290Z,66.20
2023-07-28T02:40:53.103Z,66.70
2023-07-28T02:43:19.965Z,67.30
2023-07-28T02:45:54.123Z,67.40
2023-07-28T02:48:22.572Z,67.70
2023-07-28T02:50:52.408Z,68.10
2023-07-28T02:53:20.005Z,68.50
2023-07-28T02:55:48.389Z,68.40
2023-07-28T02:58:15.677Z,68.50
2023-07-28T03:00:44.011Z,68.80
2023-07-28T03:03:12.686Z,68.90
2023-07-28T03:05:40.561Z,68.70
2023-07-28T03:08:07.770Z,68.80
2023-07-28T03:10:34.668Z,68.60
2023-07-28T03:13:01.504Z,69.00
2023-07-28T03:15:28.362Z,68.90
2023-07-28T03:17:55.982Z,69.00
2023-07-28T03:20:23.072Z,69.30
2023-07-28T03:22:49.903Z,69.40
2023-07-28T03:25:16.773Z,69.10
2023-07-28T03:27:43.574Z,69.00
2023-07-28T03:30:12.056Z,69.20
2023-07-28T03:32:39.218Z,69.00
2023-07-28T03:35:06.791Z,69.00
2023-07-28T03:37:34.381Z,69.20
2023-07-28T03:40:01.297Z,69.30
2023-07-28T03:42:28.371Z,69.30
2023-07-28T03:44:55.201Z,69.30
2023-07-28T03:47:22.265Z,69.60
2023-07-28T03:49:49.098Z,69.80
2023-07-28T03:52:16.044Z,69.80
2023-07-28T03:54:42.887Z,69.70
2023-07-28T03:57:10.906Z,69.80
2023-07-28T03:59:37.779Z,69.80
2023-07-28T04:02:04.989Z,69.60
2023-07-28T04:04:31.808Z,69.70
2023-07-28T04:06:58.707Z,69.80
2023-07-28T04:09:25.941Z,70.20
2023-07-28T04:11:52.721Z,70.40
2023-07-28T04:14:19.585Z,70.20
2023-07-28T04:16:46.468Z,70.20
2023-07-28T04:19:13.254Z,69.90
2023-07-28T04:21:42.972Z,70.10
2023-07-28T04:24:11.009Z,69.90
2023-07-28T04:26:38.148Z,70.20
2023-07-28T04:29:05.207Z,70.20
2023-07-28T04:31:32.109Z,0.00
2023-07-28T04:33:58.882Z,70.90
2023-07-28T04:36:25.708Z,70.70
2023-07-28T04:38:52.492Z,70.70
2023-07-28T04:41:19.295Z,70.40
2023-07-28T04:43:46.032Z,70.30
2023-07-28T04:46:12.909Z,70.00
2023-07-28T04:48:39.812Z,70.00
2023-07-28T04:51:06.643Z,69.70
2023-07-28T04:53:33.509Z,69.50
2023-07-28T04:56:00.512Z,69.40
2023-07-28T04:58:27.371Z,69.00
2023-07-28T05:00:54.770Z,69.00
2023-07-28T05:03:21.640Z,69.10
2023-07-28T05:05:48.502Z,69.50
2023-07-28T05:08:15.320Z,0.00
2023-07-28T05:10:44.218Z,69.60
2023-07-28T05:13:11.107Z,69.60
2023-07-28T05:15:37.903Z,70.10
2023-07-28T05:18:04.702Z,69.50
2023-07-28T05:20:31.715Z,69.90
2023-07-28T05:22:58.520Z,69.60
2023-07-28T05:25:25.347Z,69.20
2023-07-28T05:27:52.310Z,69.20
2023-07-28T05:30:19.146Z,69.20
2023-07-28T05:32:47.516Z,69.20
2023-07-28T05:35:15.818Z,69.20
2023-07-28T05:37:42.737Z,69.30
2023-07-28T05:40:10.166Z,69.40
2023-07-28T05:42:37.004Z,69.30
2023-07-28T05:45:04.635Z,69.50
2023-07-28T05:47:31.458Z,69.10
2023-07-28T05:49:58.325Z,69.00
2023-07-28T05:52:25.242Z,69.20
2023-07-28T05:54:52.085Z,69.10
2023-07-28T05:57:18.881Z,69.00
2023-07-28T05:59:45.710Z,68.60
2023-07-28T06:02:12.478Z,68.90
2023-07-28T06:04:39.297Z,68.70
2023-07-28T06:07:06.491Z,69.00
2023-07-28T06:09:33.333Z,68.90
2023-07-28T06:12:00.193Z,68.80
2023-07-28T06:14:27.031Z,68.70
2023-07-28T06:16:53.873Z,68.80
2023-07-28T06:19:25.026Z,68.40
2023-07-28T06:21:52.829Z,66.90
2023-07-28T06:24:20.214Z,66.90
2023-07-28T06:26:47.037Z,66.80
2023-07-28T06:29:13.886Z,66.40
2023-07-28T06:31:40.712Z,65.80
2023-07-28T06:34:07.863Z,66.00
2023-07-28T06:36:34.720Z,65.90
2023-07-28T06:39:01.530Z,65.80
2023-07-28T06:41:28.313Z,66.10
2023-07-28T06:43:55.113Z,66.20
2023-07-28T06:46:21.895Z,66.30
2023-07-28T06:48:48.698Z,66.00
2023-07-28T06:51:15.505Z,65.60
2023-07-28T06:53:42.304Z,65.30
2023-07-28T06:56:09.142Z,64.30
2023-07-28T06:58:35.891Z,63.90
2023-07-28T07:01:02.969Z,63.20
2023-07-28T07:03:29.795Z,63.20
2023-07-28T07:05:56.811Z,62.90
2023-07-28T07:08:24.214Z,62.50
2023-07-28T07:10:51.859Z,62.20
2023-07-28T07:13:19.030Z,61.60
2023-07-28T07:15:46.743Z,61.20
2023-07-28T07:18:14.122Z,61.50
2023-07-28T07:20:41.075Z,61.70
2023-07-28T07:23:07.949Z,62.10
2023-07-28T07:25:34.818Z,61.90
2023-07-28T07:28:01.739Z,61.90
2023-07-28T07:30:28.733Z,61.70
2023-07-28T07:32:55.698Z,61.60
2023-07-28T07:35:22.627Z,61.50
2023-07-28T07:37:49.518Z,61.60
2023-07-28T07:40:16.365Z,61.80
2023-07-28T07:42:46.415Z,61.80
2023-07-28T07:45:14.030Z,61.60
2023-07-28T07:47:44.141Z,61.60
2023-07-28T07:50:12.565Z,61.10
2023-07-28T07:52:41.674Z,60.90
2023-07-28T07:55:12.537Z,59.90
2023-07-28T07:57:39.890Z,60.00
2023-07-28T08:00:07.412Z,59.80
2023-07-28T08:02:34.290Z,59.80
2023-07-28T08:05:01.132Z,60.20
2023-07-28T08:07:28.115Z,60.30
2023-07-28T08:09:55.173Z,60.60
2023-07-28T08:12:21.960Z,60.80
2023-07-28T08:14:49.019Z,60.60
2023-07-28T08:17:15.872Z,60.30
2023-07-28T08:19:42.799Z,60.60
2023-07-28T08:22:10.313Z,60.40
2023-07-28T08:24:37.198Z,60.50
2023-07-28T08:27:04.709Z,60.80
2023-07-28T08:29:31.604Z,60.60
2023-07-28T08:31:58.456Z,60.50
2023-07-28T08:34:25.330Z,60.30
2023-07-28T08:36:52.152Z,60.30
2023-07-28T08:39:19.535Z,59.90
2023-07-28T08:41:46.548Z,60.50
2023-07-28T08:44:13.315Z,60.60
2023-07-28T08:46:40.267Z,61.50
2023-07-28T08:49:07.088Z,61.40
2023-07-28T08:51:34.140Z,60.80
2023-07-28T08:54:01.228Z,60.90
2023-07-28T08:56:29.685Z,61.00
2023-07-28T08:59:01.007Z,60.90
2023-07-28T09:01:27.773Z,60.80
2023-07-28T09:03:55.164Z,60.50
2023-07-28T09:06:30.666Z,61.10
2023-07-28T09:08:58.901Z,61.00
2023-07-28T09:11:28.044Z,61.30
2023-07-28T09:13:56.976Z,61.50
2023-07-28T09:16:25.856Z,61.20
2023-07-28T09:19:06.029Z,61.50
2023-07-28T09:21:34.070Z,61.20
2023-07-28T09:24:02.884Z,60.80
2023-07-28T09:26:39.613Z,60.50
2023-07-28T09:29:16.479Z,60.50
2023-07-28T09:31:44.409Z,60.20
2023-07-28T09:34:12.834Z,60.40
2023-07-28T09:36:40.167Z,60.30
2023-07-28T09:39:11.075Z,60.20
2023-07-28T09:41:39.222Z,60.60
2023-07-28T09:44:09.067Z,60.30
2023-07-28T09:46:39.476Z,60.30
2023-07-28T09:49:11.562Z,60.50
2023-07-28T09:51:42.013Z,60.60
2023-07-28T09:54:28.326Z,60.20
2023-07-28T09:56:59.160Z,60.40
2023-07-28T09:59:42.190Z,59.60
2023-07-28T10:02:09.870Z,59.00
2023-07-28T10:04:37.275Z,58.90
2023-07-28T10:07:06.620Z,59.00
2023-07-28T10:09:38.445Z,58.60
2023-07-28T10:12:06.020Z,57.90
2023-07-28T10:14:41.221Z,58.00
2023-07-28T10:17:16.047Z,59.00
2023-07-28T10:19:44.282Z,59.30
2023-07-28T10:22:13.045Z,59.60
2023-07-28T10:25:03.094Z,59.30
2023-07-28T10:27:36.829Z,59.00
2023-07-28T10:30:10.791Z,58.00
2023-07-28T10:32:46.178Z,58.20
2023-07-28T10:35:12.929Z,58.20
2023-07-28T10:37:44.122Z,57.60
2023-07-28T10:40:31.673Z,57.40
2023-07-28T10:43:02.263Z,57.00
2023-07-28T10:45:31.304Z,57.00
2023-07-28T10:48:01.460Z,56.50
2023-07-28T10:50:29.484Z,56.40
2023-07-28T10:52:56.916Z,56.50
2023-07-28T10:55:26.011Z,54.80
2023-07-28T10:57:54.796Z,55.60
2023-07-28T11:00:23.742Z,55.90
2023-07-28T11:02:54.909Z,56.20
2023-07-28T11:05:27.588Z,55.80
2023-07-28T11:08:03.961Z,55.60
2023-07-28T11:10:32.097Z,55.50
2023-07-28T11:13:06.728Z,55.30
2023-07-28T11:15:43.084Z,54.40
2023-07-28T11:18:11.065Z,54.60
2023-07-28T11:20:38.010Z,53.90
2023-07-28T11:23:05.941Z,0.00
2023-07-28T11:25:34.483Z,53.50
2023-07-28T11:28:08.240Z,53.80
2023-07-28T11:30:39.570Z,53.90
2023-07-28T11:33:11.006Z,53.60
2023-07-28T11:35:41.407Z,52.90
2023-07-28T11:38:09.496Z,0.00
2023-07-28T11:40:37.480Z,51.20
2023-07-28T11:43:04.641Z,50.90
2023-07-28T11:45:31.622Z,50.90
2023-07-28T11:48:03.714Z,50.50
2023-07-28T11:50:35.493Z,50.60
2023-07-28T11:53:02.433Z,51.50
2023-07-28T11:55:30.477Z,52.60
2023-07-28T11:57:57.420Z,52.80
2023-07-28T12:00:37.269Z,53.30
2023-07-28T12:03:14.683Z,53.10
2023-07-28T12:06:13.380Z,53.20
2023-07-28T12:08:42.842Z,52.40
2023-07-28T12:19:15.402Z,49.90
2023-07-28T12:21:42.480Z,50.10
2023-07-28T12:24:09.566Z,49.60
2023-07-28T12:26:39.643Z,49.90
2023-07-28T12:34:07.059Z,49.40
2023-07-28T12:39:55.089Z,49.10
2023-07-28T12:42:15.517Z,49.00
2023-07-28T12:47:09.761Z,49.40
2023-07-28T12:49:36.717Z,48.70
2023-07-28T12:52:07.974Z,48.30
2023-07-28T12:54:44.185Z,47.90
2023-07-28T12:57:13.970Z,48.60
2023-07-28T13:02:10.897Z,48.40
2023-07-28T13:04:37.762Z,49.20
2023-07-28T13:09:37.240Z,49.20
2023-07-28T13:14:35.203Z,48.90
2023-07-28T13:17:02.234Z,49.50
2023-07-28T13:19:29.054Z,48.70
2023-07-28T13:21:56.004Z,48.30
2023-07-28T13:24:22.843Z,48.50
2023-07-28T13:26:49.633Z,47.10
2023-07-28T13:29:16.431Z,47.00
2023-07-28T13:31:44.313Z,46.70
2023-07-28T13:34:11.218Z,46.00
2023-07-28T13:36:38.075Z,46.20
2023-07-28T13:39:04.940Z,46.80
2023-07-28T13:41:31.701Z,46.40
2023-07-28T13:44:02.239Z,45.90
2023-07-28T13:46:29.785Z,46.40
2023-07-28T13:48:56.740Z,46.60
2023-07-28T13:52:09.280Z,46.60
2023-07-28T13:57:01.141Z,45.80
2023-07-28T13:59:28.504Z,45.40
2023-07-28T14:01:56.562Z,44.30
2023-07-28T14:04:23.366Z,44.40
2023-07-28T14:06:50.192Z,44.20
2023-07-28T14:09:17.096Z,45.30
2023-07-28T14:11:43.915Z,45.30
2023-07-28T14:14:10.696Z,45.70
2023-07-28T14:16:37.561Z,45.60
2023-07-28T14:19:04.789Z,45.10
2023-07-28T14:21:31.588Z,45.70
2023-07-28T14:23:59.719Z,44.80
2023-07-28T14:26:27.771Z,44.40
2023-07-28T14:28:54.638Z,43.60
2023-07-28T14:31:22.735Z,43.00
2023-07-28T14:33:49.673Z,43.10
2023-07-28T14:36:16.597Z,43.00
2023-07-28T14:38:43.441Z,42.40
2023-07-28T14:41:10.395Z,42.40
2023-07-28T14:43:37.272Z,42.20
2023-07-28T14:46:04.120Z,42.10
2023-07-28T14:48:30.982Z,42.60
2023-07-28T14:50:57.829Z,42.30
2023-07-28T14:53:30.677Z,42.70
2023-07-28T14:55:57.776Z,42.80
2023-07-28T14:58:25.546Z,43.00
2023-07-28T15:00:52.424Z,43.30
2023-07-28T15:03:19.223Z,42.90
2023-07-28T15:05:46.229Z,43.40
2023-07-28T15:08:14.208Z,43.90
2023-07-28T15:10:40.993Z,43.70
2023-07-28T15:13:07.773Z,43.60
2023-07-28T15:15:34.591Z,44.10
2023-07-28T15:18:01.443Z,43.30
2023-07-28T15:20:28.249Z,44.10
2023-07-28T15:22:55.061Z,43.50
2023-07-28T15:25:22.011Z,43.90
2023-07-28T15:27:49.018Z,43.30
2023-07-28T15:30:16.125Z,43.60
2023-07-28T15:32:43.006Z,43.00
2023-07-28T15:35:11.755Z,0.00
2023-07-28T15:37:38.693Z,42.80
2023-07-28T15:40:06.509Z,43.50
2023-07-28T15:42:33.307Z,43.60
2023-07-28T15:45:00.090Z,43.70
2023-07-28T15:47:27.805Z,43.60
2023-07-28T15:49:55.104Z,43.90
2023-07-28T15:52:21.997Z,43.50
2023-07-28T15:54:48.848Z,43.30
2023-07-28T15:57:15.780Z,43.60
2023-07-28T15:59:42.748Z,44.20
2023-07-28T16:02:09.638Z,44.00
2023-07-28T16:04:38.743Z,43.60
2023-07-28T16:07:06.863Z,43.50
2023-07-28T16:09:33.946Z,43.70
2023-07-28T16:12:00.809Z,43.20
2023-07-28T16:14:27.778Z,43.40
2023-07-28T16:16:54.612Z,43.80
2023-07-28T16:19:22.003Z,44.30
2023-07-28T16:21:48.812Z,44.70
2023-07-28T16:24:15.621Z,44.50
2023-07-28T16:26:42.441Z,44.20
2023-07-28T16:29:09.620Z,44.60
2023-07-28T16:31:36.616Z,0.00
2023-07-28T16:34:04.473Z,43.30
2023-07-28T16:36:31.351Z,43.60
2023-07-28T16:38:58.168Z,43.80
2023-07-28T16:41:25.329Z,43.40
2023-07-28T16:43:52.346Z,43.70
2023-07-28T16:46:19.193Z,43.90
2023-07-28T16:48:45.978Z,43.70
2023-07-28T16:51:13.082Z,43.80
2023-07-28T16:53:39.867Z,43.50
2023-07-28T16:56:07.613Z,44.10
2023-07-28T16:58:34.468Z,44.40
2023-07-28T17:01:01.321Z,44.20
2023-07-28T17:03:28.264Z,44.00
2023-07-28T17:05:55.093Z,45.40
2023-07-28T17:08:21.920Z,44.90
2023-07-28T17:10:48.859Z,44.90
2023-07-28T17:13:15.869Z,45.10
2023-07-28T17:15:42.816Z,45.60
2023-07-28T17:18:10.347Z,45.80
2023-07-28T17:20:37.241Z,46.10
2023-07-28T17:23:04.107Z,0.00
2023-07-28T17:25:30.867Z,46.10
2023-07-28T17:27:57.684Z,46.40
2023-07-28T17:30:24.454Z,46.30
2023-07-28T17:32:51.324Z,46.80
2023-07-28T17:35:18.221Z,47.00
2023-07-28T17:37:47.878Z,47.10
2023-07-28T17:40:14.675Z,47.20
2023-07-28T17:42:41.517Z,46.90
2023-07-28T17:45:09.080Z,47.10
2023-07-28T17:47:38.744Z,47.20
2023-07-28T17:50:09.878Z,47.50
2023-07-28T17:52:39.510Z,47.70
2023-07-28T17:55:06.903Z,47.60
2023-07-28T17:57:33.694Z,47.80
2023-07-28T18:00:00.653Z,47.90
2023-07-28T18:02:27.758Z,47.60
2023-07-28T18:04:54.585Z,48.00
2023-07-28T18:07:21.342Z,47.90
2023-07-28T18:09:49.928Z,48.50
2023-07-28T18:12:18.582Z,48.90
2023-07-28T18:14:45.388Z,48.50
2023-07-28T18:17:12.179Z,49.00
2023-07-28T18:19:39.027Z,48.60
2023-07-28T18:22:05.862Z,49.50
2023-07-28T18:24:32.644Z,49.30
2023-07-28T18:26:59.543Z,48.30
2023-07-28T18:29:26.366Z,48.20
2023-07-28T18:31:53.171Z,48.30
2023-07-28T18:34:19.927Z,48.60
2023-07-28T18:36:46.730Z,48.90
2023-07-28T18:39:13.531Z,49.20
2023-07-28T18:41:40.272Z,49.00
2023-07-28T18:44:07.090Z,49.10
2023-07-28T18:46:33.958Z,49.40
2023-07-28T18:49:00.790Z,49.20
2023-07-28T18:51:29.290Z,49.60
2023-07-28T18:53:57.281Z,52.40
2023-07-28T18:56:24.118Z,52.40
2023-07-28T18:58:50.985Z,52.50
2023-07-28T19:01:17.980Z,53.00
2023-07-28T19:03:44.966Z,53.60
2023-07-28T19:06:11.892Z,54.10
2023-07-28T19:08:40.894Z,54.70
2023-07-28T19:11:08.373Z,55.40
2023-07-28T19:13:35.231Z,55.90
2023-07-28T19:16:02.138Z,55.40
2023-07-28T19:18:29.522Z,55.50
2023-07-28T19:20:56.387Z,55.70
2023-07-28T19:23:26.417Z,56.20
2023-07-28T19:25:53.583Z,56.20
2023-07-28T19:28:20.441Z,56.00
2023-07-28T19:30:47.455Z,55.90
2023-07-28T19:33:14.776Z,55.60
2023-07-28T19:35:44.610Z,55.60
2023-07-28T19:38:11.928Z,55.40
2023-07-28T19:40:38.774Z,55.30
2023-07-28T19:43:05.591Z,55.40
2023-07-28T19:45:32.361Z,55.40
2023-07-28T19:47:59.305Z,54.90
2023-07-28T19:50:39.834Z,55.40
2023-07-28T19:53:11.128Z,55.50
2023-07-28T19:55:37.861Z,55.40
2023-07-28T19:58:04.666Z,55.70
2023-07-28T20:00:31.450Z,55.70
2023-07-28T20:02:58.328Z,56.30
2023-07-28T20:05:25.236Z,56.60
2023-07-28T20:07:52.062Z,56.70
2023-07-28T20:10:18.986Z,56.90
2023-07-28T20:12:45.790Z,57.00
2023-07-28T20:15:12.593Z,57.20
2023-07-28T20:17:39.464Z,57.50
2023-07-28T20:20:07.408Z,57.30
2023-07-28T20:22:34.238Z,57.40
2023-07-28T20:25:01.061Z,57.40
2023-07-28T20:27:30.725Z,57.60
2023-07-28T20:29:57.510Z,57.50
2023-07-28T20:32:27.665Z,56.90
2023-07-28T20:34:55.049Z,57.00
2023-07-28T20:37:21.934Z,57.20
2023-07-28T20:39:48.651Z,57.20
2023-07-28T20:42:18.469Z,56.90
2023-07-28T20:44:45.780Z,57.10
2023-07-28T20:47:13.571Z,57.40
2023-07-28T20:49:41.104Z,57.40
2023-07-28T20:52:07.932Z,57.10
2023-07-28T20:54:34.759Z,57.50
2023-07-28T20:57:01.697Z,57.50
2023-07-28T20:59:28.520Z,57.10
2023-07-28T21:01:55.317Z,56.90
2023-07-28T21:04:22.276Z,57.00
2023-07-28T21:06:49.115Z,56.90
2023-07-28T21:09:15.915Z,56.80
2023-07-28T21:11:42.689Z,57.10
2023-07-28T21:14:09.473Z,56.90
2023-07-28T21:16:36.572Z,56.90
2023-07-28T21:19:03.541Z,57.20
2023-07-28T21:21:30.468Z,57.40
2023-07-28T21:23:57.288Z,57.50
2023-07-28T21:26:24.148Z,58.10
2023-07-28T21:28:52.955Z,58.70
2023-07-28T21:31:21.051Z,58.60
2023-07-28T21:33:49.224Z,59.00
2023-07-28T21:36:15.981Z,58.90
2023-07-28T21:38:42.778Z,58.90
2023-07-28T21:41:09.575Z,59.10
2023-07-28T21:43:36.420Z,59.10
2023-07-28T21:46:03.994Z,59.10
2023-07-28T21:48:30.801Z,59.10
2023-07-28T21:50:57.587Z,58.90
2023-07-28T21:53:24.369Z,59.10
2023-07-28T21:55:51.158Z,59.10
2023-07-28T21:58:18.091Z,59.00
2023-07-28T22:00:44.864Z,59.10
2023-07-28T22:03:14.532Z,59.20
2023-07-28T22:05:42.456Z,59.10
2023-07-28T22:08:15.209Z,59.20
2023-07-28T22:10:42.399Z,59.50
2023-07-28T22:13:09.455Z,59.60
2023-07-28T22:15:36.289Z,58.90
2023-07-28T22:18:04.031Z,59.00
2023-07-28T22:20:34.222Z,59.20
2023-07-28T22:23:01.012Z,59.10
2023-07-28T22:25:29.015Z,59.30
2023-07-28T22:27:57.784Z,58.90
2023-07-28T22:30:25.270Z,59.20
2023-07-28T22:32:52.249Z,59.50
2023-07-28T22:35:19.112Z,59.00
2023-07-28T22:37:46.034Z,59.10
2023-07-28T22:40:13.064Z,59.40
2023-07-28T22:42:40.618Z,59.30
2023-07-28T22:45:07.755Z,59.30
2023-07-28T22:47:35.327Z,60.30
2023-07-28T22:50:02.657Z,61.20
2023-07-28T22:52:29.530Z,61.80
2023-07-28T22:55:10.157Z,62.70
2023-07-28T22:57:41.722Z,62.50
2023-07-28T23:00:11.803Z,63.20
2023-07-28T23:02:39.631Z,63.40
2023-07-28T23:05:07.196Z,63.00
2023-07-28T23:07:34.037Z,63.20
2023-07-28T23:10:00.908Z,63.10
2023-07-28T23:12:27.680Z,63.30
2023-07-28T23:14:54.496Z,62.90
2023-07-28T23:17:21.300Z,62.50
2023-07-28T23:19:48.066Z,62.40
2023-07-28T23:22:14.871Z,62.10
2023-07-28T23:24:42.749Z,61.50
2023-07-28T23:27:09.692Z,61.40
2023-07-28T23:29:36.583Z,61.70
2023-07-28T23:32:03.596Z,61.50
2023-07-28T23:34:30.426Z,61.50
2023-07-28T23:36:57.308Z,61.40
2023-07-28T23:39:26.112Z,61.50
2023-07-28T23:41:53.003Z,61.70
2023-07-28T23:44:19.802Z,61.70
2023-07-28T23:46:46.625Z,61.80
2023-07-28T23:49:13.443Z,62.00
2023-07-28T23:51:40.292Z,62.10
2023-07-28T23:54:07.155Z,62.40
2023-07-28T23:56:34.166Z,62.70
2023-07-28T23:59:01.505Z,63.10
